| time (UTC) | temp C | wind direction | speed KPH | gust KPH | rain 1hr cm | rain 24hr cm | rain mn cm | humidity % | barometer mb |
| 20260507130057 | 11 | 87 | 16.1 | 29.0 | 0.00 | 0.00 | 0.00 | 75 | 1020.6 |
| 20260507124556 | 11 | 92 | 16.1 | 32.2 | 0.00 | 0.00 | 0.00 | 77 | 1020.6 |
| 20260507123106 | 11 | 82 | 11.3 | 27.4 | 0.00 | 0.00 | 0.00 | 77 | 1020.2 |
| 20260507121605 | 11 | 71 | 17.7 | 27.4 | 0.00 | 0.00 | 0.00 | 76 | 1020.1 |
| 20260507120056 | 11 | 67 | 16.1 | 27.4 | 0.00 | 0.00 | 0.00 | 75 | 1019.9 |
| 20260507114550 | 11 | 80 | 19.3 | 35.4 | 0.00 | 0.00 | 0.00 | 74 | 1019.8 |
| 20260507113050 | 11 | 83 | 16.1 | 27.4 | 0.00 | 0.00 | 0.00 | 73 | 1019.7 |
| 20260507111551 | 11 | 61 | 14.5 | 30.6 | 0.00 | 0.00 | 0.00 | 72 | 1019.7 |
| 20260507110108 | 12 | 99 | 14.5 | 33.8 | 0.00 | 0.00 | 0.00 | 71 | 1019.7 |
| 20260507104555 | 12 | 79 | 16.1 | 25.7 | 0.00 | 0.00 | 0.00 | 69 | 1019.8 |
| 20260507103057 | 12 | 80 | 16.1 | 29.0 | 0.00 | 0.00 | 0.00 | 69 | 1019.7 |
| 20260507101552 | 12 | 102 | 16.1 | 29.0 | 0.00 | 0.00 | 0.00 | 68 | 1019.7 |
| 20260507100054 | 12 | 74 | 20.9 | 35.4 | 0.00 | 0.00 | 0.00 | 67 | 1019.4 |
| 20260507094608 | 13 | 84 | 20.9 | 33.8 | 0.00 | 0.00 | 0.00 | 67 | 1019.3 |
| 20260507093059 | 13 | 101 | 20.9 | 33.8 | 0.00 | 0.00 | 0.00 | 66 | 1019.4 |
| 20260507091620 | 13 | 100 | 19.3 | 29.0 | 0.00 | 0.00 | 0.00 | 66 | 1019.2 |
| 20260507090106 | 14 | 63 | 14.5 | 29.0 | 0.00 | 0.00 | 0.00 | 68 | 1018.9 |
| 20260507084556 | 14 | 113 | 17.7 | 30.6 | 0.00 | 0.00 | 0.00 | 70 | 1018.9 |
| 20260507083053 | 13 | 87 | 14.5 | 25.7 | 0.00 | 0.00 | 0.00 | 69 | 1018.5 |
| 20260507081556 | 14 | 75 | 11.3 | 32.2 | 0.00 | 0.00 | 0.00 | 68 | 1018.3 |
| 20260507080053 | 15 | 100 | 19.3 | 32.2 | 0.00 | 0.00 | 0.00 | 67 | 1018.1 |
| 20260507074553 | 15 | 103 | 9.7 | 20.9 | 0.00 | 0.00 | 0.00 | 66 | 1018.1 |
| 20260507073054 | 15 | 104 | 12.9 | 20.9 | 0.00 | 0.00 | 0.00 | 67 | 1018.0 |
| 20260507071559 | 15 | 108 | 14.5 | 27.4 | 0.00 | 0.00 | 0.00 | 68 | 1018.0 |
| 20260507070103 | 16 | 86 | 14.5 | 22.5 | 0.00 | 0.00 | 0.00 | 69 | 1017.6 |
| 20260507064552 | 16 | 108 | 9.7 | 19.3 | 0.00 | 0.00 | 0.00 | 70 | 1017.5 |
| 20260507063053 | 16 | 127 | 11.3 | 20.9 | 0.00 | 0.00 | 0.00 | 68 | 1017.4 |
| 20260507061555 | 17 | 131 | 14.5 | 30.6 | 0.00 | 0.00 | 0.00 | 67 | 1017.2 |
| 20260507060105 | 17 | 131 | 20.9 | 33.8 | 0.00 | 0.00 | 0.00 | 66 | 1016.8 |
| 20260507054557 | 17 | 133 | 24.1 | 35.4 | 0.00 | 0.00 | 0.00 | 66 | 1016.6 |
| 20260507053100 | 17 | 135 | 12.9 | 24.1 | 0.00 | 0.00 | 0.00 | 66 | 1016.5 |
| 20260507051553 | 18 | 129 | 12.9 | 22.5 | 0.00 | 0.00 | 0.00 | 65 | 1016.8 |
| 20260507050057 | 18 | 108 | 9.7 | 27.4 | 0.00 | 0.00 | 0.00 | 64 | 1016.7 |
| 20260507044600 | 18 | 137 | 17.7 | 35.4 | 0.00 | 0.00 | 0.00 | 63 | 1016.3 |
| 20260507043053 | 19 | 146 | 17.7 | 27.4 | 0.00 | 0.00 | 0.00 | 59 | 1016.1 |
| 20260507041602 | 19 | 130 | 14.5 | 20.9 | 0.00 | 0.00 | 0.00 | 50 | 1015.7 |
| 20260507040103 | 20 | 105 | 14.5 | 24.1 | 0.00 | 0.00 | 0.00 | 48 | 1015.4 |
| 20260507034600 | 20 | 131 | 14.5 | 29.0 | 0.00 | 0.00 | 0.00 | 47 | 1015.2 |
| 20260507033056 | 20 | 121 | 16.1 | 30.6 | 0.00 | 0.00 | 0.00 | 45 | 1014.9 |
| 20260507031551 | 21 | 120 | 17.7 | 27.4 | 0.00 | 0.00 | 0.00 | 43 | 1014.7 |
| 20260507030054 | 21 | 128 | 19.3 | 32.2 | 0.00 | 0.00 | 0.00 | 41 | 1014.5 |
| 20260507024558 | 22 | 123 | 14.5 | 24.1 | 0.00 | 0.00 | 0.00 | 37 | 1014.0 |
| 20260507023056 | 23 | 115 | 11.3 | 20.9 | 0.00 | 0.00 | 0.00 | 36 | 1013.7 |
| 20260507021554 | 23 | 130 | 11.3 | 24.1 | 0.00 | 0.00 | 0.00 | 35 | 1013.4 |
| 20260507020056 | 23 | 123 | 14.5 | 24.1 | 0.00 | 0.00 | 0.00 | 34 | 1013.2 |
| 20260507014553 | 24 | 117 | 8.0 | 20.9 | 0.00 | 0.00 | 0.00 | 32 | 1013.1 |
| 20260507013052 | 25 | 153 | 12.9 | 20.9 | 0.00 | 0.00 | 0.00 | 32 | 1013.0 |
| 20260507011551 | 25 | 155 | 11.3 | 20.9 | 0.00 | 0.00 | 0.00 | 31 | 1012.8 |
| 20260507010110 | 25 | 153 | 16.1 | 29.0 | 0.00 | 0.00 | 0.00 | 31 | 1012.7 |
| 20260507004554 | 25 | 123 | 17.7 | 29.0 | 0.00 | 0.00 | 0.00 | 30 | 1012.6 |
| 20260507003053 | 26 | 192 | 11.3 | 24.1 | 0.00 | 0.00 | 0.00 | 29 | 1012.5 |
| 20260507001558 | 26 | 158 | 8.0 | 16.1 | 0.00 | 0.00 | 0.00 | 29 | 1012.4 |
| 20260507000056 | 26 | 133 | 6.4 | 17.7 | 0.00 | 0.00 | 0.00 | 29 | 1012.3 |
| 20260506234557 | 26 | 163 | 9.7 | 19.3 | 0.00 | 0.00 | 0.00 | 29 | 1012.3 |
| 20260506233100 | 26 | 138 | 8.0 | 20.9 | 0.00 | 0.00 | 0.00 | 29 | 1012.3 |
| 20260506231551 | 26 | 150 | 11.3 | 22.5 | 0.00 | 0.00 | 0.00 | 29 | 1012.2 |
| 20260506230059 | 26 | 250 | 8.0 | 22.5 | 0.00 | 0.00 | 0.00 | 29 | 1012.3 |
| 20260506224557 | 26 | 221 | 4.8 | 14.5 | 0.00 | 0.00 | 0.00 | 30 | 1012.4 |
| 20260506223102 | 25 | 235 | 11.3 | 20.9 | 0.00 | 0.00 | 0.00 | 30 | 1012.5 |
| 20260506221608 | 25 | 205 | 9.7 | 46.7 | 0.00 | 0.00 | 0.00 | 32 | 1012.4 |
| 20260506220057 | 25 | 133 | 6.4 | 25.7 | 0.00 | 0.00 | 0.00 | 34 | 1012.8 |
| 20260506214611 | 25 | 155 | 3.2 | 16.1 | 0.00 | 0.00 | 0.00 | 34 | 1012.8 |
| 20260506213059 | 25 | 75 | 8.0 | 20.9 | 0.00 | 0.00 | 0.00 | 35 | 1013.0 |
| 20260506211601 | 24 | 64 | 3.2 | 16.1 | 0.00 | 0.00 | 0.00 | 36 | 1013.4 |
| 20260506204613 | 23 | 108 | 11.3 | 29.0 | 0.00 | 0.00 | 0.00 | 37 | 1013.9 |
| 20260506203100 | 22 | 153 | 11.3 | 24.1 | 0.00 | 0.00 | 0.00 | 39 | 1014.1 |
| 20260506201600 | 22 | 126 | 9.7 | 20.9 | 0.00 | 0.00 | 0.00 | 40 | 1014.2 |
| 20260506200053 | 22 | 118 | 8.0 | 20.9 | 0.00 | 0.00 | 0.00 | 40 | 1014.3 |
| 20260506194552 | 21 | 75 | 6.4 | 24.1 | 0.00 | 0.00 | 0.00 | 42 | 1014.5 |
| 20260506193052 | 21 | 107 | 9.7 | 20.9 | 0.00 | 0.00 | 0.00 | 46 | 1014.7 |
| 20260506191553 | 20 | 108 | 9.7 | 29.0 | 0.00 | 0.00 | 0.00 | 47 | 1014.9 |
| 20260506190054 | 20 | 100 | 9.7 | 30.6 | 0.00 | 0.00 | 0.00 | 48 | 1014.9 |
| 20260506184557 | 18 | 124 | 11.3 | 22.5 | 0.00 | 0.00 | 0.00 | 50 | 1015.2 |
| 20260506183058 | 18 | 98 | 9.7 | 22.5 | 0.00 | 0.00 | 0.00 | 52 | 1015.3 |
| 20260506181553 | 18 | 84 | 11.3 | 24.1 | 0.00 | 0.00 | 0.00 | 53 | 1015.4 |
| 20260506174607 | 16 | 65 | 12.9 | 22.5 | 0.00 | 0.00 | 0.00 | 57 | 1016.0 |
| 20260506173126 | 16 | 70 | 14.5 | 22.5 | 0.00 | 0.00 | 0.00 | 58 | 1016.0 |
| 20260506171600 | 15 | 43 | 16.1 | 22.5 | 0.00 | 0.00 | 0.00 | 60 | 1016.1 |
| 20260506170055 | 15 | 90 | 14.5 | 29.0 | 0.00 | 0.00 | 0.00 | 61 | 1016.0 |
| 20260506164553 | 14 | 64 | 14.5 | 25.7 | 0.00 | 0.00 | 0.00 | 62 | 1016.2 |
| 20260506163055 | 13 | 70 | 16.1 | 25.7 | 0.00 | 0.00 | 0.00 | 64 | 1016.1 |
| 20260506161603 | 13 | 49 | 14.5 | 24.1 | 0.00 | 0.00 | 0.00 | 64 | 1016.0 |
| 20260506160054 | 13 | 56 | 16.1 | 33.8 | 0.00 | 0.00 | 0.00 | 64 | 1016.0 |
| 20260506154600 | 13 | 70 | 17.7 | 29.0 | 0.00 | 0.00 | 0.00 | 65 | 1015.9 |
| 20260506153054 | 13 | 45 | 17.7 | 29.0 | 0.00 | 0.00 | 0.00 | 65 | 1015.8 |
| 20260506151555 | 13 | 90 | 17.7 | 32.2 | 0.00 | 0.00 | 0.00 | 66 | 1015.5 |
| 20260506150101 | 13 | 61 | 11.3 | 27.4 | 0.00 | 0.00 | 0.00 | 67 | 1015.3 |
| 20260506144604 | 12 | 51 | 16.1 | 24.1 | 0.00 | 0.00 | 0.00 | 68 | 1015.3 |
| 20260506143056 | 12 | 92 | 12.9 | 29.0 | 0.00 | 0.00 | 0.00 | 69 | 1015.1 |
| 20260506141554 | 12 | 53 | 19.3 | 29.0 | 0.00 | 0.00 | 0.00 | 69 | 1015.1 |
| 20260506140106 | 12 | 27 | 19.3 | 30.6 | 0.00 | 0.00 | 0.00 | 69 | 1015.1 |
| 20260506134554 | 13 | 90 | 17.7 | 33.8 | 0.00 | 0.00 | 0.00 | 69 | 1014.7 |
| 20260506133121 | 13 | 57 | 12.9 | 32.2 | 0.00 | 0.00 | 0.00 | 69 | 1014.1 |
| 20260506131555 | 13 | 63 | 12.9 | 24.1 | 0.00 | 0.00 | 0.00 | 69 | 1013.5 |